Terminal Aerodrome Forecast
Issued by NWS Wilmington, OH

Current Version | Previous Version | Graphics & Text | Print | Product List | Glossary On
Versions: 1 2 3 4 5 6 7 8 9 10 11 12 13 14 15 16 17
024
FTUS41 KILN 152000 AAB
TAFCMH
TAF AMD
KCMH 152000Z 1520/1618 30018G30KT P6SM VCSH OVC040
      TEMPO 1520/1521 5SM -SHRA OVC025
     FM152100 29014G28KT P6SM OVC025
      TEMPO 1522/1523 5SM -SHRA OVC015
     FM160000 32014G20KT P6SM OVC025
     FM160700 33008KT P6SM BKN035=

USA.gov is the U.S. government's official web portal to all federal, state and local government web resources and services.